Time;durP1;ratioP1;P1;durP2;ratioP2;P2;SDS_P1;SDS_P2;PMS_P1;PMS_P2;Temp;Humidity;BMP_temperature;BMP_pressure;BME280_temperature;BME280_humidity;BME280_pressure;Samples;Min_cycle;Max_cycle;Signal;HPM_P1;HPM_P2
2021/01/07 00:00:59;;;;;;;77.60;43.87;;;2.30;99.90;;;;;;4908619;28;20256;-74
2021/01/07 00:03:22;;;;;;;76.47;43.93;;;2.30;99.90;;;;;;4903371;28;20651;-72
2021/01/07 00:05:44;;;;;;;70.67;42.63;;;2.30;99.90;;;;;;4900684;28;20296;-73
2021/01/07 00:08:06;;;;;;;73.67;42.83;;;2.30;99.90;;;;;;4901826;28;20196;-72
2021/01/07 00:10:28;;;;;;;79.37;45.70;;;2.30;99.90;;;;;;4909444;28;20250;-72
2021/01/07 00:12:51;;;;;;;83.67;47.33;;;2.30;99.90;;;;;;4901848;28;20218;-72
2021/01/07 00:15:13;;;;;;;82.70;49.43;;;2.30;99.90;;;;;;4903369;28;20187;-72
2021/01/07 00:17:35;;;;;;;86.10;48.73;;;2.30;99.90;;;;;;4902297;28;20659;-72
2021/01/07 00:19:58;;;;;;;77.50;46.13;;;2.30;99.90;;;;;;4909055;28;20184;-72
2021/01/07 00:22:20;;;;;;;89.43;47.83;;;2.20;99.90;;;;;;4907467;28;20192;-72
2021/01/07 00:24:42;;;;;;;80.63;45.57;;;2.30;99.90;;;;;;4892911;28;20197;-72
2021/01/07 00:27:05;;;;;;;85.17;47.00;;;2.30;99.90;;;;;;4906040;28;20192;-73
2021/01/07 00:29:27;;;;;;;80.37;47.07;;;2.30;99.90;;;;;;4902833;28;20259;-72
2021/01/07 00:31:49;;;;;;;78.23;45.90;;;2.30;99.90;;;;;;4911635;28;20212;-72
2021/01/07 00:34:11;;;;;;;81.33;45.70;;;2.30;99.90;;;;;;4904411;28;20187;-72
2021/01/07 00:36:37;;;;;;;89.50;48.50;;;2.30;99.90;;;;;;4898430;28;20181;-72
2021/01/07 00:38:59;;;;;;;77.20;46.17;;;2.30;99.90;;;;;;4913632;28;20200;-72
2021/01/07 00:41:21;;;;;;;85.50;48.40;;;2.20;99.90;;;;;;4902219;28;20195;-72
2021/01/07 00:43:44;;;;;;;85.80;50.37;;;2.30;99.90;;;;;;4909046;28;20229;-72
2021/01/07 00:46:08;;;;;;;84.43;50.30;;;2.30;99.90;;;;;;4906163;28;20183;-72
2021/01/07 00:48:30;;;;;;;88.63;49.87;;;2.20;99.90;;;;;;4907022;28;20200;-72
2021/01/07 00:50:53;;;;;;;87.00;50.23;;;2.30;99.90;;;;;;4908470;28;20249;-73
2021/01/07 00:53:16;;;;;;;75.83;46.43;;;2.30;99.90;;;;;;4904370;28;20652;-73
2021/01/07 00:55:39;;;;;;;79.40;47.20;;;2.20;99.90;;;;;;4908256;28;20512;-72
2021/01/07 00:58:07;;;;;;;77.60;46.30;;;2.30;99.90;;;;;;4912038;28;20208;-72
2021/01/07 01:00:30;;;;;;;85.10;47.17;;;2.30;99.90;;;;;;4902928;28;20663;-72
2021/01/07 01:02:52;;;;;;;76.00;45.13;;;2.20;99.90;;;;;;4906273;28;20215;-71
2021/01/07 01:05:15;;;;;;;79.87;47.77;;;2.20;99.90;;;;;;4888050;28;20189;-72
2021/01/07 01:07:37;;;;;;;84.90;50.80;;;2.20;99.90;;;;;;4902743;28;20632;-72
2021/01/07 01:10:01;;;;;;;85.60;49.97;;;2.20;99.90;;;;;;4912565;28;20919;-72
2021/01/07 01:12:23;;;;;;;85.97;51.10;;;2.20;99.90;;;;;;4905370;28;20212;-72
2021/01/07 01:14:45;;;;;;;84.03;50.50;;;2.20;99.90;;;;;;4904125;28;20508;-72
2021/01/07 01:17:08;;;;;;;79.13;47.60;;;2.20;99.90;;;;;;4912456;28;20642;-72
2021/01/07 01:19:31;;;;;;;73.93;46.40;;;2.20;99.90;;;;;;4899656;28;20966;-72
2021/01/07 01:21:54;;;;;;;77.07;47.40;;;2.20;99.90;;;;;;4910926;28;20233;-72
2021/01/07 01:24:16;;;;;;;77.30;45.83;;;2.20;99.90;;;;;;4897955;28;20201;-72
2021/01/07 01:26:39;;;;;;;73.13;45.20;;;2.20;99.90;;;;;;4908693;28;20696;-71
2021/01/07 01:29:01;;;;;;;72.40;44.03;;;2.20;99.90;;;;;;4905379;28;20215;-73
2021/01/07 01:31:23;;;;;;;67.53;40.87;;;2.20;99.90;;;;;;4905091;28;20211;-72
2021/01/07 01:33:45;;;;;;;59.10;38.73;;;2.20;99.90;;;;;;4906990;28;20192;-72
2021/01/07 01:36:08;;;;;;;70.93;41.80;;;2.10;99.90;;;;;;4906688;28;20668;-73
2021/01/07 01:38:30;;;;;;;70.50;40.70;;;2.10;99.90;;;;;;4905499;28;20617;-72
2021/01/07 01:40:52;;;;;;;73.77;43.20;;;2.10;99.90;;;;;;4907040;28;20192;-72
2021/01/07 01:43:15;;;;;;;70.90;44.07;;;2.20;99.90;;;;;;4867026;28;20198;-72
2021/01/07 01:45:37;;;;;;;71.80;43.10;;;2.20;99.90;;;;;;4931475;28;20187;-72
2021/01/07 01:47:59;;;;;;;79.23;45.40;;;2.10;99.90;;;;;;4907852;28;20218;-73
2021/01/07 01:50:22;;;;;;;78.20;44.27;;;2.10;99.90;;;;;;4903860;28;20243;-72
2021/01/07 01:52:45;;;;;;;85.90;47.60;;;2.10;99.90;;;;;;4905966;28;20231;-72
2021/01/07 01:55:08;;;;;;;79.50;43.83;;;2.10;99.90;;;;;;4930786;28;20205;-72
2021/01/07 01:57:32;;;;;;;79.67;45.23;;;2.00;99.90;;;;;;4900745;28;20655;-72
2021/01/07 01:59:55;;;;;;;88.13;50.40;;;2.00;99.90;;;;;;4887082;28;20197;-72
2021/01/07 02:02:18;;;;;;;82.57;48.87;;;2.00;99.90;;;;;;4903390;28;20567;-72
2021/01/07 02:04:40;;;;;;;77.23;44.43;;;2.00;99.90;;;;;;4905267;28;20653;-72
2021/01/07 02:07:05;;;;;;;77.53;45.57;;;2.00;99.90;;;;;;4888015;28;20219;-72
2021/01/07 02:09:28;;;;;;;77.50;43.90;;;2.00;99.90;;;;;;4907816;28;20254;-72
2021/01/07 02:11:50;;;;;;;79.83;45.10;;;1.90;99.90;;;;;;4906659;28;20262;-72
2021/01/07 02:14:12;;;;;;;75.50;44.43;;;2.00;99.90;;;;;;4903549;28;20213;-72
2021/01/07 02:16:35;;;;;;;81.90;45.33;;;2.00;99.90;;;;;;4905089;28;20618;-72
2021/01/07 02:18:58;;;;;;;89.10;49.07;;;2.00;99.90;;;;;;4905189;28;20538;-73
2021/01/07 02:21:21;;;;;;;85.10;47.70;;;1.90;99.90;;;;;;4905958;28;20207;-72
2021/01/07 02:23:51;;;;;;;80.67;46.13;;;1.90;99.90;;;;;;4901728;28;20192;-72
2021/01/07 02:26:13;;;;;;;70.70;41.03;;;1.90;99.90;;;;;;4896510;28;20204;-72
2021/01/07 02:28:35;;;;;;;72.80;41.37;;;1.80;99.90;;;;;;4931294;28;20225;-72
2021/01/07 02:30:57;;;;;;;56.30;34.10;;;1.90;99.90;;;;;;4909753;28;20184;-73
2021/01/07 02:33:19;;;;;;;56.57;33.13;;;1.80;99.90;;;;;;4903885;28;20204;-72
2021/01/07 02:35:41;;;;;;;55.50;32.13;;;1.90;99.90;;;;;;4907617;28;20242;-72
2021/01/07 02:38:04;;;;;;;48.03;31.50;;;1.90;99.90;;;;;;4912486;28;20219;-71
2021/01/07 02:40:26;;;;;;;48.37;30.80;;;1.90;99.90;;;;;;4897717;28;20364;-72
2021/01/07 02:42:48;;;;;;;52.17;31.83;;;1.90;99.90;;;;;;4905548;28;20230;-73
2021/01/07 02:45:11;;;;;;;51.77;31.53;;;1.90;99.90;;;;;;4922390;28;20200;-72
2021/01/07 02:47:33;;;;;;;48.13;29.90;;;2.00;99.90;;;;;;4907566;28;20654;-72
2021/01/07 02:49:55;;;;;;;46.17;28.53;;;2.00;99.90;;;;;;4907747;28;20200;-72
2021/01/07 02:52:17;;;;;;;41.37;26.83;;;2.00;99.90;;;;;;4886448;28;20653;-73
2021/01/07 02:54:40;;;;;;;43.70;27.27;;;2.00;99.90;;;;;;4905395;28;20701;-76
2021/01/07 02:57:03;;;;;;;47.30;26.97;;;2.00;99.90;;;;;;4904097;28;20252;-72
2021/01/07 02:59:25;;;;;;;41.37;25.30;;;1.90;99.90;;;;;;4902038;28;20184;-73
2021/01/07 03:01:47;;;;;;;42.87;25.93;;;1.90;99.90;;;;;;4908550;28;20202;-74
2021/01/07 03:04:09;;;;;;;39.27;25.17;;;1.90;99.90;;;;;;4909301;28;20715;-74
2021/01/07 03:06:31;;;;;;;37.23;23.27;;;1.80;99.90;;;;;;4901850;28;20177;-72
2021/01/07 03:08:53;;;;;;;40.50;24.13;;;1.90;99.90;;;;;;4884487;28;20234;-73
2021/01/07 03:11:17;;;;;;;40.47;24.47;;;1.90;99.90;;;;;;4907147;28;20611;-73
2021/01/07 03:13:39;;;;;;;37.67;24.80;;;1.80;99.90;;;;;;4901778;28;20589;-73
2021/01/07 03:16:01;;;;;;;36.37;23.80;;;1.80;99.90;;;;;;4901392;28;20200;-72
2021/01/07 03:18:23;;;;;;;37.70;24.10;;;1.80;99.90;;;;;;4892457;28;20192;-73
2021/01/07 03:20:45;;;;;;;38.40;23.97;;;1.80;99.90;;;;;;4901255;28;20657;-72
2021/01/07 03:23:07;;;;;;;36.10;22.13;;;1.80;99.90;;;;;;4909675;28;20206;-72
2021/01/07 03:25:29;;;;;;;35.63;21.73;;;1.80;99.90;;;;;;4902318;28;20185;-72
2021/01/07 03:27:52;;;;;;;42.13;24.50;;;1.80;99.90;;;;;;4906826;28;20188;-72
2021/01/07 03:30:15;;;;;;;39.23;24.70;;;1.70;99.90;;;;;;4905354;28;20212;-74
2021/01/07 03:32:38;;;;;;;40.53;25.23;;;1.80;99.90;;;;;;4911358;28;20224;-72
2021/01/07 03:35:00;;;;;;;43.70;26.93;;;1.80;99.90;;;;;;4903573;28;20211;-73
2021/01/07 03:37:22;;;;;;;39.53;25.83;;;1.80;99.90;;;;;;4905825;28;20827;-72
2021/01/07 03:39:44;;;;;;;40.23;24.97;;;1.90;99.90;;;;;;4902611;28;20995;-73
2021/01/07 03:42:06;;;;;;;43.80;26.40;;;1.90;99.90;;;;;;4905246;28;20237;-72
2021/01/07 03:44:29;;;;;;;44.93;27.03;;;1.90;99.90;;;;;;4897257;28;20535;-72
2021/01/07 03:46:51;;;;;;;40.87;26.73;;;1.90;99.90;;;;;;4909085;28;20988;-73
2021/01/07 03:49:13;;;;;;;43.40;28.23;;;1.90;99.90;;;;;;4902321;28;20192;-73
2021/01/07 03:51:35;;;;;;;40.60;26.80;;;1.90;99.90;;;;;;4899447;28;20212;-73
2021/01/07 03:53:57;;;;;;;44.20;26.47;;;1.90;99.90;;;;;;4906852;28;20249;-73
2021/01/07 03:56:19;;;;;;;41.03;26.13;;;1.90;99.90;;;;;;4885911;28;20686;-72
2021/01/07 03:58:42;;;;;;;40.07;25.33;;;1.90;99.90;;;;;;4900376;28;20201;-72
2021/01/07 04:01:05;;;;;;;42.20;25.93;;;1.90;99.90;;;;;;4900125;28;20192;-73
2021/01/07 04:03:27;;;;;;;39.77;24.70;;;1.90;99.90;;;;;;4900719;28;20173;-73
2021/01/07 04:05:49;;;;;;;39.73;24.80;;;1.90;99.90;;;;;;4899506;28;20607;-72
2021/01/07 04:08:11;;;;;;;40.27;24.70;;;1.90;99.90;;;;;;4901816;28;20617;-73
2021/01/07 04:10:33;;;;;;;37.47;23.80;;;1.90;99.90;;;;;;4889629;28;20246;-74
2021/01/07 04:12:55;;;;;;;35.13;23.07;;;1.80;99.90;;;;;;4901712;28;20653;-73
2021/01/07 04:15:18;;;;;;;39.37;24.67;;;1.80;99.90;;;;;;4909667;28;20233;-72
2021/01/07 04:17:41;;;;;;;29.07;19.00;;;1.80;99.90;;;;;;4906234;28;20695;-73
2021/01/07 04:20:04;;;;;;;28.10;18.70;;;1.80;99.90;;;;;;4910438;28;20200;-72
2021/01/07 04:22:26;;;;;;;27.10;17.83;;;1.70;99.90;;;;;;4908257;28;20300;-72
2021/01/07 04:24:48;;;;;;;29.50;18.67;;;1.80;99.90;;;;;;4909349;28;20192;-75
2021/01/07 04:27:10;;;;;;;27.30;18.30;;;1.70;99.90;;;;;;4882482;28;20193;-73
2021/01/07 04:29:32;;;;;;;28.47;18.70;;;1.70;99.90;;;;;;4908813;28;20233;-73
2021/01/07 04:31:54;;;;;;;28.40;17.97;;;1.80;99.90;;;;;;4906203;28;20266;-73
2021/01/07 04:34:17;;;;;;;22.07;16.33;;;1.80;99.90;;;;;;4915258;28;20646;-73
2021/01/07 04:36:39;;;;;;;24.07;16.77;;;1.80;99.90;;;;;;4904247;28;20196;-73
2021/01/07 04:39:02;;;;;;;21.37;15.13;;;1.80;99.90;;;;;;4908751;28;20184;-73
2021/01/07 04:41:24;;;;;;;21.50;14.27;;;1.90;99.90;;;;;;4882286;28;20201;-73
2021/01/07 04:43:46;;;;;;;17.90;13.70;;;1.90;99.90;;;;;;4904077;28;20188;-72
2021/01/07 04:46:08;;;;;;;22.07;14.10;;;1.90;99.90;;;;;;4907100;28;20200;-73
2021/01/07 04:48:31;;;;;;;20.23;13.97;;;1.90;99.90;;;;;;4933206;28;20546;-73
2021/01/07 04:50:54;;;;;;;17.33;11.67;;;1.90;99.90;;;;;;4907686;28;20603;-72
2021/01/07 04:53:16;;;;;;;19.77;14.00;;;1.80;96.80;;;;;;4906491;28;20232;-72
2021/01/07 04:55:39;;;;;;;18.77;12.40;;;1.90;96.80;;;;;;4906437;28;20204;-73
2021/01/07 04:58:01;;;;;;;15.93;11.27;;;1.90;96.90;;;;;;4890714;28;20193;-73
2021/01/07 05:00:23;;;;;;;17.00;12.30;;;1.90;94.80;;;;;;4881926;28;20622;-74
2021/01/07 05:02:46;;;;;;;12.93;10.83;;;1.90;94.80;;;;;;4908310;28;20189;-73
2021/01/07 05:05:09;;;;;;;12.67;9.73;;;1.90;93.70;;;;;;4904239;28;20192;-73
2021/01/07 05:07:36;;;;;;;13.13;9.50;;;1.90;92.80;;;;;;4907999;28;20249;-72
2021/01/07 05:10:04;;;;;;;11.90;8.63;;;1.80;92.90;;;;;;4901794;28;20200;-72
2021/01/07 05:12:26;;;;;;;13.07;9.37;;;2.10;91.50;;;;;;4886623;28;20212;-73
2021/01/07 05:14:48;;;;;;;16.90;10.67;;;1.80;91.40;;;;;;4901675;28;20249;-73
2021/01/07 05:17:12;;;;;;;13.17;9.67;;;1.80;90.60;;;;;;4900458;28;20188;-72
2021/01/07 05:19:36;;;;;;;15.20;10.50;;;1.80;90.90;;;;;;4905634;28;20197;-72
2021/01/07 05:21:58;;;;;;;18.00;11.60;;;1.80;90.70;;;;;;4902744;28;20184;-73
2021/01/07 05:24:22;;;;;;;14.43;10.13;;;1.80;91.30;;;;;;4909268;28;20762;-72
2021/01/07 05:26:45;;;;;;;14.00;9.80;;;1.80;92.10;;;;;;4905931;28;20794;-72
2021/01/07 05:29:07;;;;;;;13.87;9.40;;;1.80;92.00;;;;;;4905924;28;20188;-72
2021/01/07 05:31:29;;;;;;;13.73;10.10;;;1.80;92.80;;;;;;4876574;28;20669;-73
2021/01/07 05:33:52;;;;;;;14.27;9.97;;;1.80;93.30;;;;;;4910737;28;20188;-73
2021/01/07 05:36:32;;;;;;;13.33;9.90;;;1.80;93.80;;;;;;4903138;28;20184;-74
2021/01/07 05:38:55;;;;;;;15.43;10.37;;;1.80;93.50;;;;;;4909011;28;20580;-72
2021/01/07 05:41:19;;;;;;;14.90;10.00;;;1.90;92.30;;;;;;4905699;28;20312;-71
2021/01/07 05:43:43;;;;;;;17.07;10.63;;;1.90;91.80;;;;;;4901058;28;20277;-72
2021/01/07 05:46:07;;;;;;;16.10;11.03;;;1.90;91.10;;;;;;4900534;28;21061;-72
2021/01/07 05:48:31;;;;;;;16.00;10.60;;;1.80;91.10;;;;;;4904296;28;20184;-72
2021/01/07 05:50:53;;;;;;;12.80;8.77;;;1.80;91.60;;;;;;4902075;28;20226;-73
2021/01/07 05:53:19;;;;;;;12.80;8.80;;;1.80;90.50;;;;;;4905805;28;20224;-74
2021/01/07 05:55:42;;;;;;;14.40;9.97;;;1.80;88.20;;;;;;4907202;28;20168;-73
2021/01/07 05:58:05;;;;;;;13.47;9.40;;;1.80;88.40;;;;;;4905971;28;20200;-72
2021/01/07 06:00:31;;;;;;;14.07;9.77;;;1.70;87.50;;;;;;4909621;28;20714;-74
2021/01/07 06:02:58;;;;;;;13.40;9.77;;;1.80;86.40;;;;;;4907451;28;20176;-71
2021/01/07 06:05:20;;;;;;;15.00;10.60;;;1.80;83.50;;;;;;4886263;28;20201;-72
2021/01/07 06:07:43;;;;;;;18.03;11.33;;;1.80;83.40;;;;;;4905973;28;20192;-73
2021/01/07 06:10:07;;;;;;;14.50;9.73;;;1.80;78.70;;;;;;4898608;28;20609;-72
2021/01/07 06:12:29;;;;;;;15.30;10.83;;;1.70;79.30;;;;;;4898899;28;20253;-71
2021/01/07 06:14:52;;;;;;;21.87;12.57;;;1.70;78.10;;;;;;4885491;28;20201;-72
2021/01/07 06:17:14;;;;;;;19.27;11.17;;;1.70;79.20;;;;;;4903621;28;20525;-72
2021/01/07 06:19:38;;;;;;;17.83;11.60;;;1.70;81.60;;;;;;4898460;28;20196;-72
2021/01/07 06:22:01;;;;;;;13.97;10.17;;;1.70;81.90;;;;;;4911564;28;20188;-73
2021/01/07 06:24:26;;;;;;;15.87;10.73;;;1.70;81.40;;;;;;4910986;28;20192;-72
2021/01/07 06:26:48;;;;;;;14.57;9.67;;;1.60;80.80;;;;;;4908078;28;20646;-73
2021/01/07 06:29:12;;;;;;;12.27;8.97;;;1.70;81.90;;;;;;4904498;28;20200;-72
2021/01/07 06:31:36;;;;;;;14.60;9.43;;;1.60;82.00;;;;;;4910615;28;20185;-72
2021/01/07 06:33:58;;;;;;;14.87;9.93;;;1.60;82.90;;;;;;4903406;28;20204;-73
2021/01/07 06:36:36;;;;;;;12.00;9.10;;;1.60;84.30;;;;;;4892114;28;20194;-71
2021/01/07 06:38:58;;;;;;;15.63;10.90;;;1.70;85.60;;;;;;4915479;28;21024;-72
2021/01/07 06:41:21;;;;;;;15.77;10.97;;;1.60;85.00;;;;;;4913072;28;20617;-72
2021/01/07 06:43:43;;;;;;;14.00;9.90;;;1.70;85.40;;;;;;4910506;28;20699;-71
2021/01/07 06:46:05;;;;;;;15.37;9.67;;;1.60;85.10;;;;;;4903573;28;20729;-72
2021/01/07 06:48:34;;;;;;;13.87;9.93;;;1.70;85.30;;;;;;4905515;28;20192;-72
2021/01/07 06:50:56;;;;;;;14.33;9.77;;;1.60;83.60;;;;;;4908571;28;20241;-73
2021/01/07 06:53:20;;;;;;;11.20;8.53;;;1.60;83.20;;;;;;4904429;28;20227;-73
2021/01/07 06:55:42;;;;;;;10.10;8.00;;;1.60;82.30;;;;;;4899325;28;20177;-73
2021/01/07 06:58:04;;;;;;;10.10;7.63;;;1.60;82.60;;;;;;4906435;28;20210;-71
2021/01/07 07:00:27;;;;;;;9.90;7.17;;;1.60;80.60;;;;;;4904199;28;20261;-73
2021/01/07 07:02:57;;;;;;;10.00;6.80;;;1.60;78.30;;;;;;4905860;28;20566;-72
2021/01/07 07:05:24;;;;;;;12.70;8.43;;;1.60;77.30;;;;;;4905314;28;20187;-72
2021/01/07 07:08:07;;;;;;;12.40;8.83;;;1.60;77.40;;;;;;4903775;28;20707;-72
2021/01/07 07:10:57;;;;;;;11.90;8.97;;;1.60;79.60;;;;;;4907358;28;20204;-72
2021/01/07 07:13:20;;;;;;;11.87;8.63;;;1.60;83.30;;;;;;4900606;28;20759;-72
2021/01/07 07:15:43;;;;;;;11.80;8.03;;;1.70;85.80;;;;;;4902652;28;20189;-72
2021/01/07 07:18:06;;;;;;;12.53;8.77;;;1.70;85.40;;;;;;4903591;28;20193;-72
2021/01/07 07:20:29;;;;;;;12.83;9.30;;;1.70;85.20;;;;;;4908773;28;20655;-73
2021/01/07 07:22:52;;;;;;;13.33;9.40;;;1.70;84.60;;;;;;4906961;28;20241;-72
2021/01/07 07:25:22;;;;;;;12.83;8.80;;;1.80;74.60;;;;;;4907976;28;20196;-72
2021/01/07 07:27:51;;;;;;;13.00;9.70;;;1.80;73.50;;;;;;4901355;28;20207;-74
2021/01/07 07:30:15;;;;;;;13.10;9.40;;;1.80;66.60;;;;;;4912550;28;20241;-72
2021/01/07 07:32:44;;;;;;;13.40;9.67;;;1.80;68.50;;;;;;4929796;28;20291;-72
2021/01/07 07:35:21;;;;;;;14.67;8.67;;;1.80;70.60;;;;;;4902977;28;20279;-72
2021/01/07 07:37:44;;;;;;;13.17;8.73;;;1.80;71.60;;;;;;4901695;28;20219;-72
2021/01/07 07:40:08;;;;;;;11.60;8.50;;;1.80;72.10;;;;;;4895526;28;20200;-72
2021/01/07 07:42:30;;;;;;;11.93;7.20;;;1.80;69.80;;;;;;4913107;28;20707;-72
2021/01/07 07:44:53;;;;;;;9.77;6.97;;;1.80;70.10;;;;;;4912290;28;20290;-72
2021/01/07 07:47:15;;;;;;;10.77;6.80;;;1.90;65.70;;;;;;4914148;28;20210;-72
2021/01/07 07:49:37;;;;;;;9.27;7.27;;;1.90;64.10;;;;;;4909084;28;20203;-73
2021/01/07 07:51:59;;;;;;;9.00;7.17;;;1.90;56.20;;;;;;4896570;28;20617;-72
2021/01/07 07:54:22;;;;;;;8.97;6.40;;;1.90;56.80;;;;;;4896395;28;20220;-72
2021/01/07 07:56:44;;;;;;;9.20;6.33;;;1.80;58.30;;;;;;4912792;28;20191;-73
2021/01/07 07:59:07;;;;;;;9.17;6.80;;;1.90;59.10;;;;;;4909422;28;20272;-72
2021/01/07 08:01:37;;;;;;;7.53;6.23;;;1.90;57.30;;;;;;4904762;28;20235;-72
2021/01/07 08:04:01;;;;;;;9.73;6.87;;;1.90;53.70;;;;;;4909402;28;20257;-73
2021/01/07 08:06:23;;;;;;;10.43;7.80;;;2.00;54.70;;;;;;4896057;28;20614;-73
2021/01/07 08:08:45;;;;;;;11.63;8.10;;;2.00;55.40;;;;;;4914155;28;20699;-72
2021/01/07 08:11:08;;;;;;;11.40;8.50;;;2.00;57.60;;;;;;4899075;28;20192;-72
2021/01/07 08:13:31;;;;;;;10.80;8.03;;;2.10;56.60;;;;;;4906623;28;20258;-72
2021/01/07 08:15:55;;;;;;;12.07;7.40;;;2.20;55.40;;;;;;4903744;28;20269;-72
2021/01/07 08:18:18;;;;;;;10.07;8.20;;;2.20;56.30;;;;;;4903835;28;20245;-72
2021/01/07 08:20:41;;;;;;;7.63;5.93;;;2.30;53.90;;;;;;4902967;28;20251;-72
2021/01/07 08:23:09;;;;;;;8.00;6.07;;;2.30;50.30;;;;;;4894791;28;20196;-72
2021/01/07 08:25:32;;;;;;;8.13;6.37;;;2.40;48.20;;;;;;4895736;28;20632;-74
2021/01/07 08:27:59;;;;;;;7.13;5.73;;;2.40;38.90;;;;;;4898850;28;20196;-72
2021/01/07 08:30:23;;;;;;;7.60;5.77;;;2.50;37.50;;;;;;4898582;28;20294;-79
2021/01/07 08:32:50;;;;;;;8.50;6.33;;;2.60;28.20;;;;;;4876403;28;20200;-72
2021/01/07 08:35:15;;;;;;;8.07;6.30;;;2.50;28.10;;;;;;4903128;28;20627;-72
2021/01/07 08:37:43;;;;;;;7.93;6.30;;;2.60;31.50;;;;;;4908752;28;20764;-72
2021/01/07 08:40:06;;;;;;;8.57;6.70;;;2.60;33.40;;;;;;4908482;28;20253;-72
2021/01/07 08:42:35;;;;;;;8.17;6.13;;;2.70;29.90;;;;;;4904679;28;20188;-73
2021/01/07 08:45:02;;;;;;;8.97;7.00;;;2.80;20.20;;;;;;4900435;28;20188;-72
2021/01/07 08:47:25;;;;;;;9.10;7.03;;;2.70;16.80;;;;;;4908044;28;20273;-72
2021/01/07 08:49:47;;;;;;;8.57;6.40;;;2.70;17.10;;;;;;4901172;28;20188;-74
2021/01/07 08:52:09;;;;;;;10.00;6.20;;;2.70;20.30;;;;;;4900280;28;20204;-73
2021/01/07 08:54:32;;;;;;;9.53;6.87;;;2.70;16.80;;;;;;4903535;28;20225;-72
2021/01/07 08:56:55;;;;;;;9.23;7.17;;;2.70;15.40;;;;;;4902370;28;20188;-72
2021/01/07 08:59:22;;;;;;;10.83;7.30;;;2.60;13.10;;;;;;4906657;28;20195;-74
2021/01/07 09:01:46;;;;;;;11.00;7.60;;;2.60;14.90;;;;;;4901666;28;20221;-83
2021/01/07 09:04:25;;;;;;;10.37;7.50;;;2.60;20.50;;;;;;4906020;28;20200;-77
2021/01/07 09:06:54;;;;;;;9.47;7.50;;;2.60;25.30;;;;;;4902492;28;20188;-74
2021/01/07 09:09:16;;;;;;;13.17;9.40;;;2.60;17.70;;;;;;4907659;28;20193;-72
2021/01/07 09:11:39;;;;;;;11.80;8.47;;;2.50;18.90;;;;;;4908428;28;20253;-79
2021/01/07 09:14:05;;;;;;;11.40;8.47;;;2.50;24.00;;;;;;4908453;28;20631;-73
2021/01/07 09:16:27;;;;;;;11.37;9.10;;;2.50;27.60;;;;;;4904465;28;20246;-74
2021/01/07 09:19:03;;;;;;;12.27;8.80;;;2.50;25.30;;;;;;4904934;28;20180;-73
2021/01/07 09:21:26;;;;;;;11.17;8.00;;;2.50;26.60;;;;;;4905894;28;20728;-80
2021/01/07 09:23:50;;;;;;;8.23;6.27;;;2.50;18.50;;;;;;4903656;28;20661;-74
2021/01/07 09:26:27;;;;;;;9.67;6.77;;;2.50;19.30;;;;;;4904529;28;20724;-74
2021/01/07 09:28:49;;;;;;;9.23;7.03;;;2.50;20.40;;;;;;4905094;28;20192;-73
2021/01/07 09:31:11;;;;;;;11.17;7.80;;;2.60;29.70;;;;;;4905271;28;20294;-73
2021/01/07 09:33:33;;;;;;;9.77;6.80;;;2.50;30.10;;;;;;4906185;28;20224;-72
2021/01/07 09:35:56;;;;;;;9.90;6.37;;;2.60;33.00;;;;;;4911724;28;20249;-72
2021/01/07 09:38:18;;;;;;;8.07;6.10;;;2.60;30.70;;;;;;4905023;28;20216;-73
2021/01/07 09:40:41;;;;;;;6.57;5.23;;;2.70;29.00;;;;;;4906794;28;20762;-72
2021/01/07 09:43:04;;;;;;;7.70;5.60;;;2.80;18.60;;;;;;4906076;28;20188;-75
2021/01/07 09:45:26;;;;;;;8.63;6.37;;;2.80;18.50;;;;;;4905069;28;20197;-72
2021/01/07 09:47:48;;;;;;;10.03;7.50;;;2.80;16.40;;;;;;4907590;28;20180;-73
2021/01/07 09:50:13;;;;;;;6.70;5.60;;;2.90;13.20;;;;;;4905125;28;20219;-78
2021/01/07 09:52:36;;;;;;;6.93;5.50;;;3.00;18.00;;;;;;4904606;28;20302;-71
2021/01/07 09:54:58;;;;;;;6.07;4.90;;;3.00;14.80;;;;;;4902183;28;20233;-72
2021/01/07 09:57:20;;;;;;;5.47;4.67;;;3.00;1.00;;;;;;4903327;28;20189;-72
2021/01/07 09:59:42;;;;;;;5.47;4.73;;;3.10;1.00;;;;;;4909370;28;20184;-74
2021/01/07 10:02:06;;;;;;;6.97;5.00;;;3.00;1.00;;;;;;4901907;28;20180;-73
2021/01/07 10:04:30;;;;;;;5.93;4.80;;;3.10;1.00;;;;;;4898408;28;20262;-73
2021/01/07 10:06:53;;;;;;;7.13;5.63;;;3.00;1.00;;;;;;4902180;28;20644;-75
2021/01/07 10:09:17;;;;;;;7.43;5.53;;;3.00;1.00;;;;;;4910386;28;20270;-72
2021/01/07 10:11:39;;;;;;;8.60;6.10;;;3.00;1.00;;;;;;4902699;28;20192;-72
2021/01/07 10:14:01;;;;;;;6.90;5.10;;;3.10;1.00;;;;;;4904887;28;20216;-72
2021/01/07 10:16:23;;;;;;;6.93;5.30;;;3.20;1.00;;;;;;4890185;28;20198;-71
2021/01/07 10:18:45;;;;;;;5.73;5.00;;;3.30;1.00;;;;;;4908941;28;20185;-73
2021/01/07 10:21:10;;;;;;;5.97;4.73;;;3.40;1.00;;;;;;4904785;28;20192;-80
2021/01/07 10:23:34;;;;;;;6.47;5.20;;;3.50;1.00;;;;;;4899702;28;20258;-72
2021/01/07 10:25:58;;;;;;;7.93;6.53;;;3.70;1.00;;;;;;4903161;28;20245;-72
2021/01/07 10:28:20;;;;;;;6.67;5.67;;;3.70;1.00;;;;;;4901343;28;20226;-74
2021/01/07 10:30:42;;;;;;;7.13;5.30;;;3.80;1.00;;;;;;4907819;28;20597;-73
2021/01/07 10:33:05;;;;;;;6.17;4.90;;;3.80;1.00;;;;;;4913002;28;20211;-73
2021/01/07 10:35:28;;;;;;;7.07;4.60;;;3.80;1.00;;;;;;4898169;28;20188;-72
2021/01/07 10:37:58;;;;;;;6.40;4.70;;;3.70;1.00;;;;;;4906263;28;20235;-71
2021/01/07 10:40:22;;;;;;;5.70;4.70;;;3.60;1.00;;;;;;4906423;28;20188;-71
2021/01/07 10:42:48;;;;;;;5.67;4.53;;;3.60;1.00;;;;;;4911336;28;20176;-74
2021/01/07 10:45:12;;;;;;;6.57;5.20;;;3.50;1.00;;;;;;4905369;28;20183;-71
2021/01/07 10:47:39;;;;;;;5.80;5.03;;;3.40;1.00;;;;;;4902310;28;20256;-72
2021/01/07 10:50:05;;;;;;;8.00;5.90;;;3.30;1.00;;;;;;4906942;28;20199;-72
2021/01/07 10:52:47;;;;;;;4.70;4.03;;;3.20;1.00;;;;;;4904856;28;20181;-78
2021/01/07 10:55:20;;;;;;;7.03;4.57;;;3.20;1.00;;;;;;4903664;28;20210;-72
2021/01/07 10:58:07;;;;;;;6.00;4.70;;;3.10;1.00;;;;;;4903454;28;20177;-72
2021/01/07 11:00:39;;;;;;;5.50;4.60;;;3.00;1.00;;;;;;4903970;28;20873;-72
2021/01/07 11:03:34;;;;;;;5.57;4.43;;;2.90;1.00;;;;;;4904881;28;20189;-72
2021/01/07 11:06:01;;;;;;;7.17;4.97;;;2.80;1.00;;;;;;4884208;28;20196;-72
2021/01/07 11:08:30;;;;;;;5.80;4.70;;;2.80;1.00;;;;;;4895551;28;20189;-72
2021/01/07 11:10:54;;;;;;;7.33;5.30;;;2.70;1.00;;;;;;4898431;28;20273;-71
2021/01/07 11:13:20;;;;;;;6.97;5.70;;;2.80;1.00;;;;;;4901201;28;20209;-72
2021/01/07 11:15:45;;;;;;;8.03;6.57;;;2.80;1.00;;;;;;4897647;28;20587;-74
2021/01/07 11:18:11;;;;;;;9.40;7.00;;;2.80;1.00;;;;;;4905375;28;20194;-74
2021/01/07 11:20:35;;;;;;;10.20;7.73;;;2.90;1.00;;;;;;4884971;28;20208;-72
2021/01/07 11:22:58;;;;;;;9.00;7.33;;;3.10;1.00;;;;;;4911620;28;20229;-72
2021/01/07 11:25:21;;;;;;;7.87;7.03;;;3.50;1.00;;;;;;4886837;28;20208;-82
2021/01/07 11:27:44;;;;;;;10.70;8.30;;;3.40;1.00;;;;;;4904429;28;20735;-73
2021/01/07 11:30:09;;;;;;;10.80;8.93;;;3.40;1.00;;;;;;4896371;28;20261;-72
2021/01/07 11:32:32;;;;;;;10.57;8.47;;;3.60;1.00;;;;;;4902790;28;20181;-71
2021/01/07 11:34:56;;;;;;;9.97;8.13;;;3.60;1.00;;;;;;4897010;28;20212;-74
2021/01/07 11:37:24;;;;;;;12.67;9.30;;;3.50;1.00;;;;;;4909222;28;20212;-72
2021/01/07 11:40:03;;;;;;;10.67;9.03;;;3.40;1.00;;;;;;4907327;28;20552;-73
2021/01/07 11:42:36;;;;;;;12.07;9.07;;;3.40;1.00;;;;;;4899028;28;20180;-75
2021/01/07 11:45:04;;;;;;;13.40;9.87;;;3.40;1.00;;;;;;4910035;28;20214;-72
2021/01/07 11:47:30;;;;;;;12.83;9.83;;;3.40;1.00;;;;;;4907282;28;20253;-78
2021/01/07 11:49:56;;;;;;;13.37;10.00;;;3.30;1.00;;;;;;4906605;28;20188;-76
2021/01/07 11:52:22;;;;;;;12.43;9.03;;;3.10;1.00;;;;;;4904019;28;20212;-75
2021/01/07 11:54:46;;;;;;;12.27;8.67;;;3.00;1.00;;;;;;4902276;28;20262;-75
2021/01/07 11:57:09;;;;;;;11.17;7.57;;;2.80;1.00;;;;;;4902603;28;20201;-71
2021/01/07 11:59:31;;;;;;;9.87;8.23;;;2.70;1.00;;;;;;4909021;28;20184;-72
2021/01/07 12:01:54;;;;;;;12.50;9.07;;;2.70;1.00;;;;;;4900944;28;20189;-72
2021/01/07 12:04:19;;;;;;;13.20;9.20;;;2.90;1.00;;;;;;4898265;28;20223;-73
2021/01/07 12:06:49;;;;;;;15.07;9.77;;;2.70;1.00;;;;;;4902570;28;20188;-74
2021/01/07 12:09:20;;;;;;;14.07;10.20;;;2.60;1.00;;;;;;4895997;28;20712;-72
2021/01/07 12:11:54;;;;;;;15.00;11.27;;;2.60;1.00;;;;;;4905689;28;20192;-72
2021/01/07 12:14:17;;;;;;;13.67;10.03;;;2.60;1.00;;;;;;4904492;28;20227;-75
2021/01/07 12:16:45;;;;;;;13.03;9.97;;;2.60;5.80;;;;;;4902271;28;20184;-73
2021/01/07 12:19:08;;;;;;;13.87;9.83;;;2.60;7.20;;;;;;4895801;28;20617;-74
2021/01/07 12:21:31;;;;;;;13.23;9.20;;;2.50;7.40;;;;;;4907250;28;20237;-80
2021/01/07 12:23:55;;;;;;;13.03;8.97;;;2.50;5.00;;;;;;4904274;28;20184;-75
2021/01/07 12:26:17;;;;;;;14.53;10.07;;;2.40;8.10;;;;;;4901704;28;20234;-78
2021/01/07 12:28:41;;;;;;;12.60;8.50;;;2.30;13.70;;;;;;4903078;28;20180;-73